Time;durP1;ratioP1;P1;durP2;ratioP2;P2;SDS_P1;SDS_P2;PMS_P1;PMS_P2;Temp;Humidity;BMP_temperature;BMP_pressure;BME280_temperature;BME280_humidity;BME280_pressure;Samples;Min_cycle;Max_cycle;Signal;HPM_P1;HPM_P2
2021/01/24 00:01:54;;;;;;;11.45;8.02;;;;;;;0.15;100.00;99349.91;5226367;28;20029;-68
2021/01/24 00:04:25;;;;;;;13.23;9.02;;;;;;;0.14;100.00;99350.81;5224528;28;20033;-69
2021/01/24 00:06:56;;;;;;;14.73;8.43;;;;;;;0.15;100.00;99349.06;5223739;28;20053;-69
2021/01/24 00:09:28;;;;;;;14.35;8.82;;;;;;;0.16;100.00;99343.81;5226746;28;20025;-69
2021/01/24 00:11:59;;;;;;;14.82;9.02;;;;;;;0.19;100.00;99345.34;5223843;28;20101;-69
2021/01/24 00:14:30;;;;;;;12.50;9.05;;;;;;;0.24;100.00;99353.63;5222511;28;20059;-69
2021/01/24 00:17:01;;;;;;;16.13;9.40;;;;;;;0.26;100.00;99351.75;5223637;28;20023;-68
2021/01/24 00:19:33;;;;;;;15.00;9.20;;;;;;;0.24;100.00;99357.00;5224606;28;20037;-69
2021/01/24 00:22:04;;;;;;;18.83;10.88;;;;;;;0.21;100.00;99354.63;5222609;28;20109;-69
2021/01/24 00:24:35;;;;;;;13.32;10.25;;;;;;;0.23;100.00;99355.38;5221391;28;20033;-68
2021/01/24 00:27:06;;;;;;;17.90;11.45;;;;;;;0.23;100.00;99357.94;5223035;28;20037;-69
2021/01/24 00:29:38;;;;;;;16.13;11.82;;;;;;;0.24;100.00;99351.84;5221531;28;20033;-69
2021/01/24 00:32:09;;;;;;;18.55;12.25;;;;;;;0.24;100.00;99359.59;5223744;28;20094;-69
2021/01/24 00:34:41;;;;;;;19.45;12.75;;;;;;;0.28;100.00;99360.22;5225396;28;20029;-68
2021/01/24 00:37:13;;;;;;;18.25;12.77;;;;;;;0.29;100.00;99355.88;5221188;28;20029;-69
2021/01/24 00:39:44;;;;;;;18.77;12.88;;;;;;;0.30;100.00;99367.81;5224419;28;20052;-68
2021/01/24 00:42:15;;;;;;;22.40;14.60;;;;;;;0.26;100.00;99363.81;5223462;28;20037;-69
2021/01/24 00:44:46;;;;;;;19.83;13.77;;;;;;;0.27;100.00;99371.44;5222673;28;20030;-69
2021/01/24 00:47:18;;;;;;;24.35;14.00;;;;;;;0.26;100.00;99363.81;5223738;28;20364;-69
2021/01/24 00:49:49;;;;;;;20.95;14.65;;;;;;;0.25;100.00;99378.44;5222505;28;20030;-69
2021/01/24 00:52:20;;;;;;;21.73;14.73;;;;;;;0.26;100.00;99376.69;5225092;28;20025;-69
2021/01/24 00:54:52;;;;;;;23.42;15.90;;;;;;;0.30;100.00;99378.13;5223272;28;20032;-69
2021/01/24 00:57:23;;;;;;;21.88;14.75;;;;;;;0.29;100.00;99381.63;5224071;28;20033;-68
2021/01/24 00:59:54;;;;;;;24.58;15.65;;;;;;;0.28;100.00;99380.00;5223652;28;20033;-69
2021/01/24 01:02:25;;;;;;;25.30;14.50;;;;;;;0.29;100.00;99385.03;5224806;28;20053;-69
2021/01/24 01:04:57;;;;;;;19.50;13.65;;;;;;;0.32;100.00;99381.44;5223786;28;20108;-69
2021/01/24 01:07:28;;;;;;;19.60;13.43;;;;;;;0.24;100.00;99387.91;5226116;28;20046;-69
2021/01/24 01:09:59;;;;;;;21.25;13.60;;;;;;;0.30;100.00;99393.59;5222870;28;20038;-69
2021/01/24 01:12:31;;;;;;;22.85;13.38;;;;;;;0.30;100.00;99391.00;5221571;28;20160;-69
2021/01/24 01:15:03;;;;;;;19.92;13.38;;;;;;;0.32;100.00;99396.91;5220840;28;20038;-69
2021/01/24 01:17:34;;;;;;;18.65;13.18;;;;;;;0.35;100.00;99396.69;5225062;28;20158;-69
2021/01/24 01:20:07;;;;;;;18.52;12.50;;;;;;;0.36;100.00;99399.16;5222564;28;20116;-69
2021/01/24 01:22:38;;;;;;;20.40;13.80;;;;;;;0.40;100.00;99402.38;5225944;28;20052;-69
2021/01/24 01:25:10;;;;;;;24.73;14.52;;;;;;;0.37;100.00;99398.22;5221925;28;20116;-69
2021/01/24 01:27:41;;;;;;;22.63;15.50;;;;;;;0.37;100.00;99395.66;5222239;28;20080;-69
2021/01/24 01:30:13;;;;;;;25.92;15.85;;;;;;;0.41;100.00;99402.25;5223683;28;20030;-69
2021/01/24 01:32:44;;;;;;;25.88;15.98;;;;;;;0.42;100.00;99405.69;5224119;28;20029;-69
2021/01/24 01:35:16;;;;;;;25.95;16.13;;;;;;;0.44;100.00;99406.38;5222648;28;20025;-70
2021/01/24 01:37:47;;;;;;;30.05;17.15;;;;;;;0.46;100.00;99405.38;5225297;28;20184;-69
2021/01/24 01:40:22;;;;;;;29.25;17.63;;;;;;;0.48;100.00;99406.06;5224694;28;20075;-69
2021/01/24 01:42:56;;;;;;;29.02;16.15;;;;;;;0.46;100.00;99410.53;5222376;28;20026;-69
2021/01/24 01:45:27;;;;;;;28.13;18.17;;;;;;;0.46;100.00;99413.09;5222427;28;20460;-69
2021/01/24 01:47:59;;;;;;;32.08;19.38;;;;;;;0.45;100.00;99414.00;5224261;28;20036;-69
2021/01/24 01:50:31;;;;;;;31.95;18.48;;;;;;;0.48;100.00;99413.00;5224548;28;20116;-69
2021/01/24 01:53:03;;;;;;;29.70;18.58;;;;;;;0.47;100.00;99411.34;5221510;28;20033;-69
2021/01/24 01:55:34;;;;;;;32.28;18.55;;;;;;;0.41;100.00;99411.72;5225788;28;20084;-69
2021/01/24 01:58:05;;;;;;;27.92;19.23;;;;;;;0.46;100.00;99414.84;5223737;28;20440;-69
2021/01/24 02:00:36;;;;;;;28.75;18.60;;;;;;;0.45;100.00;99424.31;5221250;28;20403;-69
2021/01/24 02:03:26;;;;;;;27.13;18.02;;;;;;;0.46;100.00;99414.84;5226092;28;20026;-69
2021/01/24 02:06:21;;;;;;;31.65;18.67;;;;;;;0.48;100.00;99423.28;5237725;28;20054;-69
2021/01/24 02:09:11;;;;;;;28.25;18.50;;;;;;;0.53;100.00;99423.84;5220935;28;20092;-69
2021/01/24 02:12:08;;;;;;;32.97;18.08;;;;;;;0.50;100.00;99418.88;5223321;28;20488;-69
2021/01/24 02:14:54;;;;;;;25.08;17.40;;;;;;;0.52;100.00;99424.75;5223341;28;20057;-69
2021/01/24 02:17:27;;;;;;;31.05;18.92;;;;;;;0.46;100.00;99425.16;5223317;28;20034;-69
2021/01/24 02:19:58;;;;;;;26.30;17.42;;;;;;;0.50;100.00;99428.38;5224165;28;20116;-69
2021/01/24 02:22:33;;;;;;;26.30;17.73;;;;;;;0.51;100.00;99427.44;5222834;28;20557;-69
2021/01/24 02:25:33;;;;;;;26.42;17.63;;;;;;;0.55;100.00;99434.84;5223234;28;20264;-69
2021/01/24 02:28:28;;;;;;;28.88;17.45;;;;;;;0.56;100.00;99438.25;5221595;28;20096;-69
2021/01/24 02:31:01;;;;;;;27.75;17.48;;;;;;;0.50;100.00;99438.66;5221219;28;20511;-69
2021/01/24 02:33:34;;;;;;;26.75;16.98;;;;;;;0.54;100.00;99443.50;5223080;28;20380;-69
2021/01/24 02:36:07;;;;;;;29.63;17.10;;;;;;;0.49;100.00;99440.41;5237862;28;20025;-69
2021/01/24 02:38:40;;;;;;;28.70;17.23;;;;;;;0.47;100.00;99442.25;5223856;28;20056;-69
2021/01/24 02:41:13;;;;;;;24.33;16.05;;;;;;;0.48;100.00;99446.47;5223582;28;20025;-69
2021/01/24 02:43:46;;;;;;;27.73;16.15;;;;;;;0.48;100.00;99449.06;5222819;28;20048;-69
2021/01/24 02:46:18;;;;;;;31.40;16.77;;;;;;;0.48;100.00;99459.38;5220558;28;20030;-69
2021/01/24 02:48:50;;;;;;;27.67;16.10;;;;;;;0.44;100.00;99455.34;5225592;28;20415;-69
2021/01/24 02:51:21;;;;;;;25.02;16.42;;;;;;;0.50;100.00;99464.44;5228435;28;20479;-69
2021/01/24 02:53:53;;;;;;;25.88;15.68;;;;;;;0.51;100.00;99468.66;5219949;28;20634;-70
2021/01/24 02:56:25;;;;;;;25.98;15.55;;;;;;;0.51;100.00;99479.78;5221817;28;20037;-69
2021/01/24 02:58:57;;;;;;;28.40;15.57;;;;;;;0.55;100.00;99476.09;5221592;28;20492;-69
2021/01/24 03:01:28;;;;;;;21.73;14.43;;;;;;;0.55;100.00;99485.56;5220964;28;20080;-69
2021/01/24 03:04:02;;;;;;;22.75;14.25;;;;;;;0.57;100.00;99483.69;5222326;28;20459;-70
2021/01/24 03:06:34;;;;;;;18.58;13.57;;;;;;;0.57;100.00;99489.69;5222820;28;20045;-69
2021/01/24 03:09:05;;;;;;;18.35;13.23;;;;;;;0.60;100.00;99494.63;5227875;28;20022;-69
2021/01/24 03:11:43;;;;;;;18.63;13.05;;;;;;;0.60;100.00;99491.25;5226560;28;20026;-69
2021/01/24 03:14:19;;;;;;;17.23;12.07;;;;;;;0.63;100.00;99507.31;5224434;28;20029;-69
2021/01/24 03:16:58;;;;;;;19.13;12.75;;;;;;;0.64;100.00;99514.13;5226528;28;20025;-69
2021/01/24 03:19:32;;;;;;;18.88;11.70;;;;;;;0.65;100.00;99510.66;5225826;28;20438;-69
2021/01/24 03:22:04;;;;;;;17.95;12.32;;;;;;;0.65;100.00;99508.06;5226164;28;20021;-69
2021/01/24 03:24:36;;;;;;;21.55;12.50;;;;;;;0.67;100.00;99520.84;5226904;28;20056;-69
2021/01/24 03:27:08;;;;;;;28.50;15.00;;;;;;;0.69;100.00;99524.97;5224814;28;20030;-69
2021/01/24 03:29:39;;;;;;;22.67;13.52;;;;;;;0.68;100.00;99527.63;5223911;28;20502;-69
2021/01/24 03:32:10;;;;;;;24.05;14.27;;;;;;;0.68;100.00;99533.66;5226021;28;20124;-70
2021/01/24 03:34:42;;;;;;;23.48;14.73;;;;;;;0.69;100.00;99529.31;5225107;28;20037;-69
2021/01/24 03:37:13;;;;;;;23.67;14.05;;;;;;;0.72;100.00;99536.84;5225240;28;20033;-69
2021/01/24 03:39:44;;;;;;;22.08;13.18;;;;;;;0.75;100.00;99546.13;5225928;28;20513;-69
2021/01/24 03:42:15;;;;;;;21.48;13.38;;;;;;;0.73;100.00;99536.75;5226256;28;20093;-69
2021/01/24 03:44:46;;;;;;;22.45;13.25;;;;;;;0.72;100.00;99539.44;5223375;28;20029;-70
2021/01/24 03:47:18;;;;;;;19.45;12.52;;;;;;;0.73;100.00;99543.66;5226465;28;20445;-69
2021/01/24 03:49:49;;;;;;;24.33;12.73;;;;;;;0.69;100.00;99548.19;5223628;28;20630;-70
2021/01/24 03:52:20;;;;;;;21.42;12.40;;;;;;;0.67;100.00;99552.59;5223251;28;20029;-69
2021/01/24 03:54:51;;;;;;;19.65;11.68;;;;;;;0.66;100.00;99548.38;5221950;28;20024;-69
2021/01/24 03:57:23;;;;;;;16.88;11.43;;;;;;;0.63;100.00;99547.75;5226252;28;20072;-69
2021/01/24 03:59:55;;;;;;;17.73;11.27;;;;;;;0.63;100.00;99553.72;5223529;28;20030;-69
2021/01/24 04:02:26;;;;;;;18.17;11.07;;;;;;;0.61;100.00;99547.03;5225362;28;20036;-69
2021/01/24 04:04:57;;;;;;;19.05;12.50;;;;;;;0.63;100.00;99545.16;5224089;28;20578;-69
2021/01/24 04:07:29;;;;;;;20.77;12.20;;;;;;;0.66;100.00;99542.41;5223141;28;20140;-69
2021/01/24 04:10:00;;;;;;;20.63;12.23;;;;;;;0.67;100.00;99562.91;5225041;28;20088;-69
2021/01/24 04:12:32;;;;;;;18.33;11.00;;;;;;;0.70;100.00;99562.72;5225932;28;20033;-69
2021/01/24 04:15:04;;;;;;;17.98;10.48;;;;;;;0.73;100.00;99556.53;5225399;28;20084;-69
2021/01/24 04:17:35;;;;;;;20.75;10.88;;;;;;;0.74;100.00;99568.50;5223285;28;20028;-69
2021/01/24 04:20:07;;;;;;;18.13;10.68;;;;;;;0.73;100.00;99565.09;5225451;28;20029;-69
2021/01/24 04:22:38;;;;;;;19.83;11.20;;;;;;;0.78;100.00;99564.78;5225221;28;20069;-69
2021/01/24 04:25:12;;;;;;;16.80;11.35;;;;;;;0.79;100.00;99570.78;5224604;28;20053;-69
2021/01/24 04:27:43;;;;;;;;;;;;;;;0.89;100.00;99575.25;5223301;28;20566;-70
2021/01/24 04:30:15;;;;;;;16.80;10.37;;;;;;;0.83;100.00;99570.47;5224695;28;19917;-69
2021/01/24 04:32:46;;;;;;;20.27;10.68;;;;;;;0.87;100.00;99569.38;5225075;28;20761;-69
2021/01/24 04:35:18;;;;;;;16.55;10.50;;;;;;;0.90;100.00;99568.31;5224690;28;20030;-69
2021/01/24 04:37:49;;;;;;;19.65;11.13;;;;;;;0.90;100.00;99578.63;5223908;28;20033;-70
2021/01/24 04:40:20;;;;;;;15.32;9.00;;;;;;;0.95;100.00;99577.44;5223315;28;20030;-69
2021/01/24 04:42:52;;;;;;;14.93;9.23;;;;;;;0.95;100.00;99581.75;5225500;28;20026;-69
2021/01/24 04:45:24;;;;;;;12.93;8.98;;;;;;;1.01;100.00;99580.53;5223735;28;20435;-69
2021/01/24 04:47:55;;;;;;;12.63;8.52;;;;;;;1.00;100.00;99578.88;5223481;28;20049;-69
2021/01/24 04:50:27;;;;;;;10.73;7.60;;;;;;;1.04;100.00;99583.72;5225351;28;20352;-69
2021/01/24 04:52:59;;;;;;;10.23;7.70;;;;;;;1.05;100.00;99590.53;5225444;28;20041;-70
2021/01/24 04:55:31;;;;;;;12.48;7.60;;;;;;;1.13;100.00;99598.59;5225095;28;20487;-69
2021/01/24 04:58:02;;;;;;;9.13;6.72;;;;;;;1.09;100.00;99594.56;5222707;28;20034;-69
2021/01/24 05:00:34;;;;;;;9.02;6.95;;;;;;;1.00;100.00;99590.00;5214561;28;20502;-69
2021/01/24 05:03:05;;;;;;;9.55;6.78;;;;;;;1.07;100.00;99599.00;5221202;28;20037;-70
2021/01/24 05:05:37;;;;;;;9.23;6.13;;;;;;;1.07;100.00;99600.75;5220616;28;20123;-69
2021/01/24 05:08:09;;;;;;;10.25;6.82;;;;;;;1.05;100.00;99602.59;5222190;28;20025;-69
2021/01/24 05:10:44;;;;;;;8.55;7.05;;;;;;;1.05;100.00;99613.75;5222981;28;20510;-69
2021/01/24 05:13:25;;;;;;;7.90;6.85;;;;;;;1.09;100.00;99617.78;5223982;28;20142;-69
2021/01/24 05:15:57;;;;;;;10.60;6.95;;;;;;;1.08;100.00;99612.72;5223006;28;20040;-70
2021/01/24 05:18:28;;;;;;;8.68;7.30;;;;;;;1.07;100.00;99614.47;5224026;28;20037;-70
2021/01/24 05:21:02;;;;;;;7.72;6.72;;;;;;;1.03;100.00;99617.38;5224072;28;20041;-70
2021/01/24 05:23:36;;;;;;;9.10;6.15;;;;;;;1.05;100.00;99612.91;5222773;28;20084;-69
2021/01/24 05:26:08;;;;;;;7.75;6.57;;;;;;;1.00;100.00;99608.06;5224107;28;20053;-69
2021/01/24 05:28:47;;;;;;;9.43;7.00;;;;;;;1.02;100.00;99619.09;5224794;28;20060;-69
2021/01/24 05:31:22;;;;;;;9.43;6.68;;;;;;;1.02;100.00;99628.59;5224249;28;20026;-69
2021/01/24 05:33:56;;;;;;;9.10;6.60;;;;;;;1.08;100.00;99626.44;5223882;28;20038;-69
2021/01/24 05:36:39;;;;;;;7.78;6.70;;;;;;;1.02;100.00;99626.00;5225154;28;20033;-69
2021/01/24 05:39:12;;;;;;;8.80;7.18;;;;;;;1.02;100.00;99636.31;5222440;28;20057;-69
2021/01/24 05:41:52;;;;;;;8.30;6.53;;;;;;;1.06;100.00;99636.06;5221019;28;20105;-69
2021/01/24 05:44:25;;;;;;;7.70;5.95;;;;;;;1.07;100.00;99636.88;5222742;28;20107;-69
2021/01/24 05:47:03;;;;;;;7.22;6.10;;;;;;;1.04;100.00;99637.88;5221017;28;20088;-69
2021/01/24 05:49:34;;;;;;;7.07;5.35;;;;;;;1.04;100.00;99643.03;5223756;28;20407;-69
2021/01/24 05:52:07;;;;;;;7.03;4.38;;;;;;;1.06;100.00;99646.38;5224156;28;20030;-69
2021/01/24 05:54:39;;;;;;;7.57;4.47;;;;;;;1.07;100.00;99658.31;5223270;28;20033;-69
2021/01/24 05:57:12;;;;;;;6.88;4.22;;;;;;;1.06;100.00;99669.59;5223020;28;20699;-69
2021/01/24 05:59:57;;;;;;;6.27;4.43;;;;;;;1.05;100.00;99661.91;5223645;28;20041;-69
2021/01/24 06:02:28;;;;;;;6.18;3.70;;;;;;;1.02;100.00;99681.00;5223977;28;20032;-70
2021/01/24 06:04:59;;;;;;;6.03;3.67;;;;;;;1.03;100.00;99677.50;5222492;28;20038;-71
2021/01/24 06:07:33;;;;;;;6.57;4.47;;;;;;;0.97;100.00;99678.72;5224329;28;20068;-70
2021/01/24 06:10:05;;;;;;;7.55;4.68;;;;;;;0.99;100.00;99680.38;5222989;28;20399;-70
2021/01/24 06:12:36;;;;;;;8.73;4.38;;;;;;;0.96;100.00;99682.22;5223448;28;20080;-70
2021/01/24 06:15:08;;;;;;;7.72;4.32;;;;;;;0.93;100.00;99685.00;5224009;28;20061;-70
2021/01/24 06:17:44;;;;;;;6.57;3.60;;;;;;;0.96;100.00;99694.28;5223734;28;20084;-70
2021/01/24 06:20:18;;;;;;;4.32;2.85;;;;;;;0.89;100.00;99690.44;5221304;28;20063;-69
2021/01/24 06:23:00;;;;;;;5.38;2.50;;;;;;;0.94;100.00;99693.53;5226284;28;20037;-69
2021/01/24 06:25:37;;;;;;;3.50;2.58;;;;;;;0.90;100.00;99703.22;5228814;28;20025;-70
2021/01/24 06:28:11;;;;;;;4.40;2.50;;;;;;;0.79;100.00;99705.66;5225206;28;20029;-69
2021/01/24 06:30:47;;;;;;;6.22;2.50;;;;;;;0.80;100.00;99714.25;5228549;28;20029;-69
2021/01/24 06:33:20;;;;;;;4.38;2.47;;;;;;;0.76;100.00;99716.19;5227609;28;20025;-69
2021/01/24 06:35:58;;;;;;;4.07;2.67;;;;;;;0.77;100.00;99717.00;5224800;28;20053;-69
2021/01/24 06:38:33;;;;;;;4.47;2.83;;;;;;;0.71;100.00;99716.44;5225453;28;20037;-69
2021/01/24 06:41:13;;;;;;;6.32;4.00;;;;;;;0.71;100.00;99723.34;5228693;28;20056;-69
2021/01/24 06:43:47;;;;;;;6.03;4.43;;;;;;;0.66;100.00;99735.69;5224306;28;20061;-70
2021/01/24 06:46:19;;;;;;;6.05;4.00;;;;;;;0.63;100.00;99739.28;5226309;28;20442;-69
2021/01/24 06:48:52;;;;;;;6.82;3.90;;;;;;;0.62;100.00;99737.63;5227680;28;20069;-70
2021/01/24 06:51:40;;;;;;;4.03;3.25;;;;;;;0.58;100.00;99736.19;5222855;28;20372;-68
2021/01/24 06:54:15;;;;;;;4.70;3.30;;;;;;;0.54;100.00;99741.63;5224367;28;20133;-69
2021/01/24 06:56:50;;;;;;;5.65;4.05;;;;;;;0.47;100.00;99749.72;5226158;28;20112;-69
2021/01/24 06:59:29;;;;;;;6.68;5.15;;;;;;;0.47;100.00;99747.13;5223655;28;20347;-70
2021/01/24 07:02:37;;;;;;;6.90;5.13;;;;;;;0.51;100.00;99754.69;5227076;28;20042;-69
2021/01/24 07:05:08;;;;;;;6.93;6.22;;;;;;;0.45;100.00;99753.28;5225138;28;20456;-69
2021/01/24 07:07:41;;;;;;;8.32;6.47;;;;;;;0.46;100.00;99755.78;5224634;28;20111;-68
2021/01/24 07:10:37;;;;;;;7.38;6.28;;;;;;;0.51;100.00;99757.25;5223129;28;20550;-69
2021/01/24 07:13:36;;;;;;;7.63;6.47;;;;;;;0.50;100.00;99760.75;5226357;28;20026;-70
2021/01/24 07:16:07;;;;;;;7.68;6.43;;;;;;;0.41;100.00;99762.94;5222083;28;20961;-69
2021/01/24 07:18:43;;;;;;;8.07;6.60;;;;;;;0.44;100.00;99767.91;5225886;28;20124;-70
2021/01/24 07:21:14;;;;;;;10.10;7.18;;;;;;;0.41;100.00;99765.53;5225526;28;20111;-69
2021/01/24 07:23:46;;;;;;;9.93;7.28;;;;;;;0.42;100.00;99774.13;5225870;28;20061;-69
2021/01/24 07:26:18;;;;;;;10.25;7.30;;;;;;;0.36;100.00;99771.88;5226369;28;20022;-69
2021/01/24 07:28:49;;;;;;;9.50;7.38;;;;;;;0.35;100.00;99778.78;5224502;28;20487;-69
2021/01/24 07:31:21;;;;;;;9.85;7.25;;;;;;;0.34;100.00;99789.16;5224580;28;20022;-69
2021/01/24 07:33:52;;;;;;;14.15;7.22;;;;;;;0.34;100.00;99789.16;5226089;28;20092;-69
2021/01/24 07:36:23;;;;;;;8.23;6.45;;;;;;;0.34;100.00;99807.19;5223704;28;20496;-69
2021/01/24 07:38:54;;;;;;;9.95;6.75;;;;;;;0.32;100.00;99814.22;5220085;28;20045;-69
2021/01/24 07:41:26;;;;;;;8.88;6.57;;;;;;;0.32;100.00;99809.06;5221458;28;20368;-69
2021/01/24 07:43:57;;;;;;;11.27;6.20;;;;;;;0.30;100.00;99810.88;5216125;28;20783;-69
2021/01/24 07:46:29;;;;;;;8.55;5.80;;;;;;;0.28;100.00;99816.13;5224512;28;20500;-69
2021/01/24 07:49:00;;;;;;;8.40;5.80;;;;;;;0.27;100.00;99811.09;5224251;28;20030;-69
2021/01/24 07:51:33;;;;;;;9.18;6.18;;;;;;;0.26;100.00;99820.53;5226131;28;20017;-69
2021/01/24 07:54:05;;;;;;;8.00;4.63;;;;;;;0.22;100.00;99819.88;5224699;28;20037;-70
2021/01/24 07:56:37;;;;;;;9.98;5.53;;;;;;;0.21;100.00;99828.53;5225195;28;20069;-69
2021/01/24 07:59:09;;;;;;;6.72;4.75;;;;;;;0.21;100.00;99823.38;5224364;28;20036;-69
2021/01/24 08:01:40;;;;;;;7.75;5.35;;;;;;;0.19;100.00;99830.38;5241022;28;20021;-69
2021/01/24 08:04:11;;;;;;;9.60;4.80;;;;;;;0.21;100.00;99838.00;5224541;28;20124;-70
2021/01/24 08:06:43;;;;;;;10.13;5.22;;;;;;;0.18;100.00;99840.75;5225742;28;20552;-69
2021/01/24 08:09:16;;;;;;;7.70;4.63;;;;;;;0.16;100.00;99837.47;5222980;28;20041;-69
2021/01/24 08:11:47;;;;;;;9.00;4.47;;;;;;;0.17;100.00;99845.09;5222338;28;20029;-69
2021/01/24 08:14:18;;;;;;;9.73;4.85;;;;;;;0.16;100.00;99853.75;5223790;28;20158;-70
2021/01/24 08:16:51;;;;;;;9.00;5.07;;;;;;;0.16;100.00;99845.19;5225294;28;20046;-69
2021/01/24 08:19:24;;;;;;;10.82;5.10;;;;;;;0.17;100.00;99862.28;5219507;28;20021;-69
2021/01/24 08:21:55;;;;;;;;;;;;;;;0.27;100.00;99857.47;5224499;28;20025;-69
2021/01/24 08:24:28;;;;;;;9.70;5.50;;;;;;;0.20;100.00;99864.69;5224356;28;19929;-69
2021/01/24 08:27:00;;;;;;;11.82;5.75;;;;;;;0.20;100.00;99859.53;5220329;28;20029;-69
2021/01/24 08:29:35;;;;;;;13.75;5.20;;;;;;;0.16;100.00;99856.31;5222761;28;20471;-69
2021/01/24 08:32:07;;;;;;;10.20;5.32;;;;;;;0.19;100.00;99865.59;5223630;28;20513;-69
2021/01/24 08:34:39;;;;;;;10.25;5.53;;;;;;;0.20;100.00;99868.09;5222398;28;20116;-69
2021/01/24 08:37:10;;;;;;;14.50;6.13;;;;;;;0.19;100.00;99871.59;5223820;28;20040;-69
2021/01/24 08:39:41;;;;;;;10.25;5.82;;;;;;;0.23;100.00;99874.84;5219405;28;20037;-69
2021/01/24 08:42:13;;;;;;;18.65;7.07;;;;;;;0.22;100.00;99876.56;5221557;28;20113;-69
2021/01/24 08:45:00;;;;;;;10.07;6.32;;;;;;;0.28;100.00;99884.88;5221680;28;20881;-69
2021/01/24 08:47:32;;;;;;;15.90;9.85;;;;;;;0.24;100.00;99881.63;5223301;28;20041;-69
2021/01/24 08:50:09;;;;;;;17.88;10.63;;;;;;;0.29;100.00;99887.34;5224064;28;20076;-69
2021/01/24 08:52:40;;;;;;;16.65;11.00;;;;;;;0.29;100.00;99887.34;5214351;28;20179;-69
2021/01/24 08:55:12;;;;;;;16.88;10.00;;;;;;;0.30;100.00;99878.69;5215959;28;20108;-70
2021/01/24 08:57:43;;;;;;;19.58;11.15;;;;;;;0.33;100.00;99883.66;5227948;28;20071;-70
2021/01/24 09:00:16;;;;;;;12.40;8.05;;;;;;;0.38;100.00;99891.97;5222549;28;20024;-69
2021/01/24 09:02:48;;;;;;;15.18;8.32;;;;;;;0.42;100.00;99890.06;5218852;28;20029;-70
2021/01/24 09:05:31;;;;;;;16.83;9.32;;;;;;;0.48;100.00;99900.81;5219806;28;20072;-69
2021/01/24 09:08:02;;;;;;;11.80;8.80;;;;;;;0.53;100.00;99907.44;5220042;28;20083;-69
2021/01/24 09:10:33;;;;;;;14.70;8.95;;;;;;;0.56;100.00;99902.13;5223318;28;20041;-70
2021/01/24 09:13:05;;;;;;;15.07;8.82;;;;;;;0.61;100.00;99897.53;5220141;28;20033;-70
2021/01/24 09:15:36;;;;;;;15.50;9.27;;;;;;;0.64;100.00;99903.31;5220022;28;20049;-69
2021/01/24 09:18:07;;;;;;;16.55;8.82;;;;;;;0.69;100.00;99908.22;5216244;28;20099;-69
2021/01/24 09:20:38;;;;;;;18.70;10.57;;;;;;;0.72;100.00;99914.03;5222152;28;20030;-69
2021/01/24 09:23:10;;;;;;;18.95;9.77;;;;;;;0.81;100.00;99919.56;5219217;28;20103;-70
2021/01/24 09:25:41;;;;;;;21.00;10.68;;;;;;;0.85;100.00;99919.28;5214921;28;20049;-69
2021/01/24 09:28:13;;;;;;;15.57;10.27;;;;;;;0.98;100.00;99924.53;5218084;28;20048;-69
2021/01/24 09:30:45;;;;;;;19.48;9.85;;;;;;;1.05;100.00;99930.16;5220243;28;20030;-69
2021/01/24 09:33:16;;;;;;;14.65;10.48;;;;;;;1.06;100.00;99926.66;5221659;28;20522;-69
2021/01/24 09:35:47;;;;;;;14.25;8.88;;;;;;;1.07;100.00;99930.91;5221496;28;20510;-69
2021/01/24 09:38:18;;;;;;;15.57;9.32;;;;;;;1.08;100.00;99943.69;5218116;28;21077;-69
2021/01/24 09:40:50;;;;;;;16.80;9.63;;;;;;;1.10;100.00;99935.84;5222287;28;20494;-69
2021/01/24 09:43:21;;;;;;;18.45;10.63;;;;;;;1.13;100.00;99938.25;5218180;28;20475;-69
2021/01/24 09:45:52;;;;;;;22.50;10.48;;;;;;;1.12;100.00;99924.53;5221712;28;20531;-69
2021/01/24 09:48:23;;;;;;;23.15;8.88;;;;;;;1.17;100.00;99929.41;5218680;28;20088;-69
2021/01/24 09:50:55;;;;;;;17.60;9.73;;;;;;;1.19;100.00;99938.72;5216632;28;21108;-69
2021/01/24 09:53:26;;;;;;;20.45;10.10;;;;;;;1.27;100.00;99948.59;5219224;28;20092;-69
2021/01/24 09:55:57;;;;;;;18.85;8.45;;;;;;;1.32;100.00;99935.41;5214203;28;20408;-69
2021/01/24 09:58:28;;;;;;;21.52;10.23;;;;;;;1.29;100.00;99931.28;5225185;28;20030;-69
2021/01/24 10:01:00;;;;;;;20.25;8.98;;;;;;;1.36;100.00;99937.69;5227486;28;20498;-69
2021/01/24 10:03:31;;;;;;;13.85;8.25;;;;;;;1.40;100.00;99949.50;5221243;28;20033;-69
2021/01/24 10:06:06;;;;;;;17.60;9.75;;;;;;;1.39;100.00;99941.84;5221087;28;21133;-69
2021/01/24 10:08:37;;;;;;;17.27;9.48;;;;;;;1.46;100.00;99943.13;5229791;28;20501;-69
2021/01/24 10:11:09;;;;;;;21.13;9.50;;;;;;;1.59;100.00;99944.03;5223423;28;20030;-69
2021/01/24 10:13:41;;;;;;;19.60;9.02;;;;;;;1.66;100.00;99949.63;5227551;28;20632;-69
2021/01/24 10:16:12;;;;;;;19.40;9.43;;;;;;;1.78;100.00;99951.47;5223752;28;20067;-69
2021/01/24 10:18:44;;;;;;;24.95;10.55;;;;;;;1.87;100.00;99947.47;5228308;28;20095;-69
2021/01/24 10:21:15;;;;;;;20.65;9.93;;;;;;;1.95;100.00;99964.13;5225206;28;20055;-68
2021/01/24 10:23:46;;;;;;;17.67;10.02;;;;;;;1.87;100.00;99950.06;5228655;28;20083;-68
2021/01/24 10:26:18;;;;;;;14.70;9.55;;;;;;;1.96;97.35;99967.53;5227330;28;20033;-68
2021/01/24 10:28:49;;;;;;;17.10;9.00;;;;;;;1.93;96.02;99958.25;5219229;28;20030;-68
2021/01/24 10:31:20;;;;;;;14.45;8.60;;;;;;;1.94;96.26;99961.66;5221464;28;20109;-68
2021/01/24 10:33:51;;;;;;;15.23;7.60;;;;;;;1.98;93.15;99964.88;5223815;28;20018;-68
2021/01/24 10:36:23;;;;;;;18.27;9.00;;;;;;;1.99;96.67;99967.34;5223547;28;20124;-68
2021/01/24 10:38:54;;;;;;;15.93;8.45;;;;;;;1.98;96.73;99962.31;5228075;28;20037;-68
2021/01/24 10:41:25;;;;;;;14.90;8.80;;;;;;;2.01;94.22;99960.34;5227073;28;20021;-68
2021/01/24 10:43:59;;;;;;;16.95;8.45;;;;;;;2.04;91.57;99956.72;5222642;28;20430;-68
2021/01/24 10:46:30;;;;;;;16.55;8.43;;;;;;;2.09;94.91;99962.44;5224478;28;20053;-69
2021/01/24 10:49:02;;;;;;;15.07;8.15;;;;;;;2.12;94.53;99949.31;5223959;28;20040;-68
2021/01/24 10:51:33;;;;;;;12.05;6.72;;;;;;;2.18;92.49;99954.91;5223812;28;20033;-68
2021/01/24 10:54:08;;;;;;;12.65;6.65;;;;;;;2.20;90.99;99952.25;5220827;28;20029;-68
2021/01/24 10:56:39;;;;;;;10.45;6.18;;;;;;;2.22;87.52;99954.72;5225192;28;20539;-68
2021/01/24 10:59:10;;;;;;;9.07;6.05;;;;;;;2.29;90.44;99948.25;5217218;28;20018;-68
2021/01/24 11:01:42;;;;;;;13.90;6.75;;;;;;;2.31;88.56;99952.41;5220690;28;20029;-68
2021/01/24 11:04:13;;;;;;;12.02;6.95;;;;;;;2.47;92.86;99949.63;5221648;28;20022;-69
2021/01/24 11:06:44;;;;;;;15.98;6.75;;;;;;;2.47;90.00;99951.41;5222369;28;20050;-69
2021/01/24 11:09:15;;;;;;;11.80;6.03;;;;;;;2.55;87.61;99949.13;5223956;28;20364;-69
2021/01/24 11:11:47;;;;;;;14.13;6.88;;;;;;;2.63;87.03;99945.09;5223159;28;20069;-69
2021/01/24 11:14:18;;;;;;;12.35;7.38;;;;;;;2.67;88.20;99943.97;5219393;28;20033;-69
2021/01/24 11:16:49;;;;;;;10.63;6.35;;;;;;;2.75;86.83;99947.81;5223905;28;20017;-69
2021/01/24 11:19:20;;;;;;;12.38;6.03;;;;;;;2.80;84.51;99945.72;5224118;28;20056;-69
2021/01/24 11:21:52;;;;;;;11.52;5.82;;;;;;;2.77;84.61;99953.72;5224412;28;20034;-68
2021/01/24 11:24:23;;;;;;;14.30;6.18;;;;;;;2.83;84.07;99950.69;5224427;28;20057;-68
2021/01/24 11:26:54;;;;;;;14.00;5.95;;;;;;;2.80;82.74;99954.31;5222576;28;20501;-68
2021/01/24 11:29:26;;;;;;;11.80;6.00;;;;;;;2.79;84.67;99954.44;5227113;28;20544;-69
2021/01/24 11:31:57;;;;;;;12.45;6.90;;;;;;;2.86;85.18;99955.69;5218610;28;20030;-68
2021/01/24 11:34:29;;;;;;;11.15;4.90;;;;;;;2.86;82.65;99953.09;5218732;28;20026;-68
2021/01/24 11:37:00;;;;;;;13.65;6.63;;;;;;;2.90;85.40;99951.94;5220924;28;20111;-68
2021/01/24 11:39:32;;;;;;;8.88;5.25;;;;;;;2.95;80.37;99947.28;5225283;28;20025;-68
2021/01/24 11:42:04;;;;;;;17.35;6.93;;;;;;;3.05;82.61;99940.56;5222166;28;20029;-68
2021/01/24 11:44:35;;;;;;;11.60;5.30;;;;;;;3.07;82.16;99943.88;5223482;28;20033;-68
2021/01/24 11:47:07;;;;;;;11.32;5.03;;;;;;;3.11;80.29;99950.50;5214538;28;20069;-69
2021/01/24 11:49:38;;;;;;;9.35;4.90;;;;;;;3.12;78.94;99940.97;5220574;28;20434;-68
2021/01/24 11:52:09;;;;;;;12.05;5.55;;;;;;;3.18;81.25;99948.31;5223431;28;20395;-68
2021/01/24 11:54:41;;;;;;;12.05;6.25;;;;;;;3.26;79.79;99943.47;5221212;28;20541;-68